Time;durP1;ratioP1;P1;durP2;ratioP2;P2;SDS_P1;SDS_P2;PMS_P1;PMS_P2;Temp;Humidity;BMP_temperature;BMP_pressure;BME280_temperature;BME280_humidity;BME280_pressure;Samples;Min_cycle;Max_cycle;Signal;HPM_P1;HPM_P2
2021/10/24 00:01:01;;;;;;;4.15;1.25;;;10.70;73.70;;;;;;5133253;27;20046;-81
2021/10/24 00:03:29;;;;;;;5.35;1.30;;;10.70;73.80;;;;;;5133004;27;20058;-81
2021/10/24 00:05:57;;;;;;;7.10;1.48;;;10.70;74.00;;;;;;5121918;27;20043;-81
2021/10/24 00:08:25;;;;;;;5.75;1.40;;;10.60;74.10;;;;;;5133162;27;20528;-81
2021/10/24 00:10:53;;;;;;;2.83;1.25;;;10.70;74.20;;;;;;5132083;27;20062;-81
2021/10/24 00:13:20;;;;;;;11.15;1.52;;;10.60;74.30;;;;;;5132447;27;20128;-81
2021/10/24 00:15:48;;;;;;;8.95;1.67;;;10.60;74.50;;;;;;5131346;27;20042;-81
2021/10/24 00:18:16;;;;;;;7.45;1.25;;;10.60;74.60;;;;;;5131550;27;20516;-81
2021/10/24 00:20:43;;;;;;;8.68;1.50;;;10.60;74.80;;;;;;5115162;27;20058;-81
2021/10/24 00:23:13;;;;;;;3.72;0.93;;;10.50;75.10;;;;;;5119667;27;20054;-81
2021/10/24 00:25:41;;;;;;;6.32;1.20;;;10.50;75.30;;;;;;5126646;27;20048;-82
2021/10/24 00:28:09;;;;;;;9.98;1.75;;;10.50;75.50;;;;;;5131719;27;20066;-82
2021/10/24 00:30:51;;;;;;;6.70;1.60;;;10.50;75.70;;;;;;5105580;28;20070;-80
2021/10/24 00:33:19;;;;;;;6.13;1.50;;;10.40;76.00;;;;;;5133429;27;20048;-80
2021/10/24 00:35:47;;;;;;;6.63;1.20;;;10.50;76.30;;;;;;5115719;27;20469;-81
2021/10/24 00:38:16;;;;;;;6.88;1.00;;;10.50;76.30;;;;;;5123671;27;20399;-82
2021/10/24 00:40:44;;;;;;;5.88;1.52;;;10.40;76.50;;;;;;5129762;27;20066;-81
2021/10/24 00:43:12;;;;;;;6.07;1.50;;;10.50;76.80;;;;;;5109801;27;20497;-80
2021/10/24 00:45:39;;;;;;;7.05;1.38;;;10.50;77.00;;;;;;5119157;27;20058;-82
2021/10/24 00:48:07;;;;;;;6.55;1.30;;;10.50;77.00;;;;;;5130095;27;20502;-81
2021/10/24 00:50:36;;;;;;;8.05;1.48;;;10.40;77.30;;;;;;5130825;27;20063;-81
2021/10/24 00:53:06;;;;;;;7.72;1.55;;;10.50;77.50;;;;;;5129791;27;20070;-81
2021/10/24 00:55:34;;;;;;;5.43;1.40;;;10.50;77.70;;;;;;5109754;28;20067;-81
2021/10/24 00:58:04;;;;;;;11.10;1.42;;;10.50;77.70;;;;;;5128919;27;20413;-81
2021/10/24 01:00:32;;;;;;;9.85;2.08;;;10.50;77.70;;;;;;5131313;27;20074;-82
2021/10/24 01:03:01;;;;;;;6.07;1.27;;;10.50;78.00;;;;;;5131151;27;20039;-81
2021/10/24 01:05:31;;;;;;;3.58;1.00;;;10.50;78.00;;;;;;5104766;27;20429;-81
2021/10/24 01:07:59;;;;;;;6.85;1.30;;;10.50;78.10;;;;;;5131546;27;20042;-81
2021/10/24 01:10:27;;;;;;;5.68;1.42;;;10.50;78.10;;;;;;5126711;27;20051;-81
2021/10/24 01:12:55;;;;;;;4.97;1.50;;;10.50;78.00;;;;;;5121868;27;20047;-81
2021/10/24 01:15:23;;;;;;;6.93;1.40;;;10.60;78.00;;;;;;5108525;28;20059;-81
2021/10/24 01:17:52;;;;;;;10.15;1.30;;;10.60;77.80;;;;;;5119059;27;20051;-81
2021/10/24 01:20:23;;;;;;;7.18;1.30;;;10.60;77.80;;;;;;5118291;27;20044;-81
2021/10/24 01:22:52;;;;;;;9.07;1.20;;;10.60;77.80;;;;;;5117495;27;20058;-81
2021/10/24 01:25:23;;;;;;;7.50;1.10;;;10.60;77.80;;;;;;5122924;28;20113;-81
2021/10/24 01:27:51;;;;;;;4.75;1.35;;;10.60;77.80;;;;;;5118370;28;20054;-81
2021/10/24 01:30:20;;;;;;;7.22;1.40;;;10.60;77.80;;;;;;5107150;28;20054;-81
2021/10/24 01:32:48;;;;;;;7.60;1.60;;;10.60;77.80;;;;;;5129623;28;20041;-81
2021/10/24 01:35:20;;;;;;;5.23;1.50;;;10.60;77.80;;;;;;5115394;28;20039;-81
2021/10/24 01:37:48;;;;;;;5.60;1.60;;;10.60;77.80;;;;;;5122719;28;20062;-81
2021/10/24 01:40:16;;;;;;;5.20;1.33;;;10.60;77.60;;;;;;5124532;28;20051;-81
2021/10/24 01:42:49;;;;;;;7.35;1.00;;;10.60;77.60;;;;;;5112461;28;20046;-82
2021/10/24 01:45:18;;;;;;;9.68;1.35;;;10.60;77.50;;;;;;5088270;28;20063;-81
2021/10/24 01:47:46;;;;;;;7.15;1.50;;;10.60;77.40;;;;;;5084790;28;20490;-80
2021/10/24 01:50:15;;;;;;;8.70;1.15;;;10.60;77.40;;;;;;5120443;28;20046;-81
2021/10/24 01:52:47;;;;;;;4.95;1.33;;;10.60;77.30;;;;;;5110780;27;20047;-81
2021/10/24 01:55:19;;;;;;;8.15;1.17;;;10.60;77.10;;;;;;5087770;28;20054;-81
2021/10/24 01:57:49;;;;;;;4.28;1.27;;;10.60;77.00;;;;;;5118274;27;20405;-80
2021/10/24 02:00:18;;;;;;;4.18;0.98;;;10.70;77.00;;;;;;5096448;28;20505;-81
2021/10/24 02:02:51;;;;;;;8.02;1.35;;;10.70;77.00;;;;;;5126958;27;20405;-81
2021/10/24 02:05:38;;;;;;;11.13;1.60;;;10.70;77.20;;;;;;5126412;27;20039;-80
2021/10/24 02:08:07;;;;;;;5.13;1.30;;;10.60;77.40;;;;;;5114947;28;20066;-80
2021/10/24 02:10:36;;;;;;;4.63;1.20;;;10.60;77.80;;;;;;5113956;28;20047;-80
2021/10/24 02:13:09;;;;;;;4.35;1.20;;;10.60;78.00;;;;;;5114940;28;20410;-80
2021/10/24 02:15:37;;;;;;;10.63;1.33;;;10.50;78.70;;;;;;5116821;27;20055;-81
2021/10/24 02:18:07;;;;;;;9.95;1.05;;;10.40;78.90;;;;;;5119849;27;20039;-81
2021/10/24 02:20:41;;;;;;;5.47;1.27;;;10.40;79.10;;;;;;5123313;27;20046;-81
2021/10/24 02:23:09;;;;;;;5.25;1.42;;;10.30;79.10;;;;;;5125319;27;20397;-81
2021/10/24 02:25:40;;;;;;;6.93;1.30;;;10.30;79.30;;;;;;5135079;27;20058;-81
2021/10/24 02:28:09;;;;;;;4.47;1.17;;;10.30;79.40;;;;;;5105967;28;20490;-81
2021/10/24 02:30:37;;;;;;;4.75;1.30;;;10.30;79.40;;;;;;5122683;27;20055;-81
2021/10/24 02:33:25;;;;;;;9.15;1.30;;;10.30;79.40;;;;;;5115146;28;20352;-80
2021/10/24 02:36:11;;;;;;;12.65;1.85;;;10.30;79.50;;;;;;5113412;28;20047;-81
2021/10/24 02:38:39;;;;;;;5.65;1.02;;;10.30;79.40;;;;;;5117560;27;20043;-81
2021/10/24 02:41:10;;;;;;;7.68;1.20;;;10.30;79.20;;;;;;5134719;27;20042;-81
2021/10/24 02:43:38;;;;;;;8.93;1.10;;;10.30;79.20;;;;;;5118027;27;20054;-81
2021/10/24 02:46:08;;;;;;;3.45;0.98;;;10.30;79.20;;;;;;5113573;28;20418;-81
2021/10/24 02:48:37;;;;;;;4.47;1.27;;;10.30;79.30;;;;;;5097259;28;20512;-81
2021/10/24 02:51:05;;;;;;;3.50;1.30;;;10.30;79.20;;;;;;5115114;28;20050;-81
2021/10/24 02:53:33;;;;;;;3.60;1.10;;;10.30;79.30;;;;;;5113606;28;20048;-81
2021/10/24 02:56:06;;;;;;;5.50;1.08;;;10.30;79.20;;;;;;5113612;28;20474;-81
2021/10/24 02:58:33;;;;;;;3.72;0.90;;;10.30;79.20;;;;;;5114916;28;20039;-81
2021/10/24 03:01:01;;;;;;;5.97;1.02;;;10.30;79.20;;;;;;5113378;28;20691;-81
2021/10/24 03:03:30;;;;;;;7.82;1.20;;;10.30;79.20;;;;;;5114551;27;20051;-81
2021/10/24 03:05:58;;;;;;;7.18;1.30;;;10.30;79.20;;;;;;5109963;27;20482;-81
2021/10/24 03:08:26;;;;;;;4.88;1.20;;;10.30;79.10;;;;;;5116494;27;20058;-81
2021/10/24 03:10:53;;;;;;;4.47;1.23;;;10.30;79.10;;;;;;5133883;27;20046;-81
2021/10/24 03:13:21;;;;;;;4.18;0.88;;;10.30;79.20;;;;;;5126098;27;20047;-81
2021/10/24 03:15:49;;;;;;;7.18;1.10;;;10.40;79.10;;;;;;5126583;27;20036;-80
2021/10/24 03:18:16;;;;;;;5.43;1.30;;;10.40;79.00;;;;;;5114539;28;20556;-81
2021/10/24 03:20:44;;;;;;;3.67;1.00;;;10.40;78.80;;;;;;5112547;27;20051;-80
2021/10/24 03:23:13;;;;;;;6.60;1.10;;;10.40;78.80;;;;;;5119695;27;20620;-81
2021/10/24 03:25:41;;;;;;;3.25;1.05;;;10.50;78.80;;;;;;5112284;27;20048;-81
2021/10/24 03:28:08;;;;;;;6.47;1.35;;;10.50;78.80;;;;;;5130539;27;20035;-81
2021/10/24 03:30:36;;;;;;;3.75;1.08;;;10.50;78.60;;;;;;5123618;27;20044;-81
2021/10/24 03:33:04;;;;;;;3.58;1.40;;;10.50;78.60;;;;;;5106498;28;20047;-81
2021/10/24 03:35:33;;;;;;;3.58;1.00;;;10.50;78.60;;;;;;5110164;27;20421;-81
2021/10/24 03:38:00;;;;;;;4.80;1.10;;;10.50;78.70;;;;;;5133903;27;20039;-81
2021/10/24 03:40:28;;;;;;;5.22;0.95;;;10.50;78.80;;;;;;5129181;27;20055;-81
2021/10/24 03:42:55;;;;;;;7.40;1.17;;;10.50;78.80;;;;;;5114296;28;20640;-81
2021/10/24 03:45:23;;;;;;;7.60;1.40;;;10.40;78.70;;;;;;5116472;27;20482;-81
2021/10/24 03:47:51;;;;;;;4.10;1.00;;;10.50;78.80;;;;;;5095602;28;20050;-81
2021/10/24 03:50:18;;;;;;;5.95;1.08;;;10.40;78.80;;;;;;5118915;27;20043;-80
2021/10/24 03:52:46;;;;;;;5.15;1.13;;;10.40;78.80;;;;;;5097004;28;20043;-80
2021/10/24 03:55:14;;;;;;;8.38;1.13;;;10.40;78.80;;;;;;5112454;28;20035;-80
2021/10/24 03:57:43;;;;;;;6.40;1.30;;;10.30;78.80;;;;;;5117157;27;20281;-80
2021/10/24 04:00:13;;;;;;;8.18;1.27;;;10.30;78.80;;;;;;5124058;27;20051;-80
2021/10/24 04:02:54;;;;;;;5.60;1.33;;;10.30;78.80;;;;;;5131426;27;20516;-81
2021/10/24 04:05:25;;;;;;;8.13;1.10;;;10.30;78.80;;;;;;5107048;28;20048;-80
2021/10/24 04:07:54;;;;;;;8.85;1.15;;;10.30;78.90;;;;;;5112276;27;20048;-81
2021/10/24 04:10:24;;;;;;;5.03;1.40;;;10.30;78.90;;;;;;5124686;27;20065;-80
2021/10/24 04:12:52;;;;;;;3.65;1.17;;;10.30;79.00;;;;;;5120769;27;20051;-79
2021/10/24 04:15:22;;;;;;;7.75;1.13;;;10.30;79.10;;;;;;5116504;27;20062;-79
2021/10/24 04:17:52;;;;;;;6.38;1.33;;;10.30;79.10;;;;;;5097496;27;20064;-79
2021/10/24 04:20:22;;;;;;;6.13;1.27;;;10.20;79.00;;;;;;5098770;27;20055;-79
2021/10/24 04:22:51;;;;;;;3.58;0.70;;;10.20;79.10;;;;;;5117391;27;20050;-79
2021/10/24 04:25:20;;;;;;;4.53;1.00;;;10.30;79.10;;;;;;5119165;27;20382;-80
2021/10/24 04:27:49;;;;;;;9.45;1.40;;;10.30;79.00;;;;;;5115611;27;20038;-79
2021/10/24 04:30:16;;;;;;;4.20;1.02;;;10.30;78.90;;;;;;5111040;28;20062;-79
2021/10/24 04:32:44;;;;;;;7.60;1.30;;;10.30;78.80;;;;;;5113347;28;20043;-79
2021/10/24 04:35:14;;;;;;;11.05;1.73;;;10.30;78.70;;;;;;5115600;27;20401;-79
2021/10/24 04:37:42;;;;;;;5.28;1.40;;;10.30;78.70;;;;;;5120005;27;20046;-79
2021/10/24 04:40:10;;;;;;;3.97;0.95;;;10.30;78.70;;;;;;5106017;28;20397;-79
2021/10/24 04:42:53;;;;;;;8.30;1.15;;;10.30;78.60;;;;;;5104207;27;20043;-79
2021/10/24 04:45:22;;;;;;;4.32;1.08;;;10.40;78.20;;;;;;5104523;28;20050;-79
2021/10/24 04:47:52;;;;;;;5.20;1.05;;;10.40;78.10;;;;;;5111416;28;20406;-79
2021/10/24 04:50:20;;;;;;;5.07;0.93;;;10.40;78.10;;;;;;5113082;27;20414;-79
2021/10/24 04:52:47;;;;;;;10.10;1.50;;;10.40;78.10;;;;;;5122590;27;20244;-79
2021/10/24 04:55:15;;;;;;;3.65;1.00;;;10.40;77.90;;;;;;5122480;27;20042;-79
2021/10/24 04:57:44;;;;;;;6.03;1.00;;;10.40;78.00;;;;;;5110860;27;20054;-80
2021/10/24 05:00:13;;;;;;;6.38;1.30;;;10.40;78.00;;;;;;5129160;27;20031;-79
2021/10/24 05:02:41;;;;;;;8.90;1.40;;;10.40;77.90;;;;;;5111864;28;20039;-79
2021/10/24 05:05:10;;;;;;;3.53;1.20;;;10.40;77.90;;;;;;5111424;28;20051;-79
2021/10/24 05:07:38;;;;;;;6.57;1.73;;;10.40;77.80;;;;;;5126537;27;20039;-79
2021/10/24 05:10:06;;;;;;;5.57;1.27;;;10.40;77.70;;;;;;5121064;27;20035;-79
2021/10/24 05:12:35;;;;;;;8.48;1.40;;;10.40;77.60;;;;;;5117115;27;20051;-79
2021/10/24 05:15:04;;;;;;;9.65;1.50;;;10.50;77.60;;;;;;5094059;28;20052;-79
2021/10/24 05:17:35;;;;;;;7.45;1.27;;;10.40;77.70;;;;;;5110328;28;20391;-80
2021/10/24 05:20:07;;;;;;;6.38;1.08;;;10.40;77.80;;;;;;5121565;27;20405;-80
2021/10/24 05:22:35;;;;;;;6.55;1.42;;;10.40;77.90;;;;;;5118232;27;20401;-80
2021/10/24 05:25:04;;;;;;;9.60;1.50;;;10.40;78.00;;;;;;5119892;28;20046;-80
2021/10/24 05:27:34;;;;;;;7.20;1.20;;;10.40;77.90;;;;;;5120192;27;20050;-79
2021/10/24 05:30:02;;;;;;;5.25;1.15;;;10.50;78.00;;;;;;5126861;28;20046;-79
2021/10/24 05:32:31;;;;;;;8.00;1.17;;;10.40;77.90;;;;;;5101153;28;20051;-80
2021/10/24 05:34:59;;;;;;;4.78;1.40;;;10.50;78.00;;;;;;5110342;28;20051;-79
2021/10/24 05:37:29;;;;;;;9.88;1.40;;;10.50;78.10;;;;;;5110347;28;20051;-80
2021/10/24 05:39:56;;;;;;;5.30;1.52;;;10.40;78.20;;;;;;5093591;28;20047;-80
2021/10/24 05:42:38;;;;;;;4.72;1.13;;;10.40;78.30;;;;;;5110883;28;20391;-79
2021/10/24 05:45:06;;;;;;;7.18;1.40;;;10.40;78.30;;;;;;5126443;28;20046;-80
2021/10/24 05:47:37;;;;;;;9.35;1.63;;;10.40;78.40;;;;;;5113063;28;20059;-80
2021/10/24 05:50:13;;;;;;;6.10;1.38;;;10.40;78.50;;;;;;5127262;28;20062;-79
2021/10/24 05:52:41;;;;;;;6.07;1.20;;;10.30;78.60;;;;;;5112070;28;20035;-80
2021/10/24 05:55:09;;;;;;;4.82;1.15;;;10.40;78.60;;;;;;5110430;28;20371;-80
2021/10/24 05:57:37;;;;;;;6.55;1.55;;;10.40;78.60;;;;;;5111894;28;20410;-80
2021/10/24 06:00:29;;;;;;;4.43;1.50;;;10.40;78.60;;;;;;5112610;28;20055;-80
2021/10/24 06:03:16;;;;;;;5.60;1.35;;;10.40;78.60;;;;;;5111431;28;20051;-79
2021/10/24 06:06:06;;;;;;;7.00;1.83;;;10.40;78.60;;;;;;5111296;28;20048;-79
2021/10/24 06:08:36;;;;;;;8.35;1.50;;;10.40;78.70;;;;;;5113292;28;20047;-80
2021/10/24 06:11:16;;;;;;;5.63;1.40;;;10.40;78.80;;;;;;5129365;28;20047;-80
2021/10/24 06:13:46;;;;;;;4.32;1.08;;;10.40;78.70;;;;;;5129412;28;20406;-80
2021/10/24 06:16:14;;;;;;;6.38;1.40;;;10.40;78.70;;;;;;5119636;28;20036;-80
2021/10/24 06:18:42;;;;;;;7.18;1.30;;;10.50;78.40;;;;;;5118710;28;20383;-80
2021/10/24 06:21:10;;;;;;;7.18;1.55;;;10.50;78.30;;;;;;5104267;28;20039;-79
2021/10/24 06:23:38;;;;;;;3.63;1.30;;;10.50;78.40;;;;;;5121324;28;20390;-79
2021/10/24 06:26:09;;;;;;;5.35;1.02;;;10.50;78.40;;;;;;5100707;28;20669;-80
2021/10/24 06:28:37;;;;;;;8.70;1.63;;;10.50;78.40;;;;;;5129643;28;20051;-79
2021/10/24 06:31:09;;;;;;;9.23;1.50;;;10.50;78.50;;;;;;5122316;28;20039;-79
2021/10/24 06:33:56;;;;;;;4.15;1.08;;;10.40;78.60;;;;;;5123579;28;20043;-79
2021/10/24 06:36:50;;;;;;;7.55;1.50;;;10.40;78.70;;;;;;5131413;28;20433;-79
2021/10/24 06:39:26;;;;;;;5.22;1.67;;;10.40;78.60;;;;;;5130552;27;20039;-79
2021/10/24 06:41:54;;;;;;;8.80;1.30;;;10.50;78.70;;;;;;5111980;28;20047;-79
2021/10/24 06:44:41;;;;;;;8.40;1.65;;;10.40;78.80;;;;;;5119168;27;20393;-80
2021/10/24 06:47:27;;;;;;;3.72;0.88;;;10.40;78.90;;;;;;5119584;27;20533;-80
2021/10/24 06:50:14;;;;;;;5.53;1.13;;;10.40;79.10;;;;;;5120540;27;20035;-79
2021/10/24 06:52:57;;;;;;;6.03;1.30;;;10.30;79.20;;;;;;5134754;27;20058;-80
2021/10/24 06:55:34;;;;;;;8.90;1.98;;;10.30;79.20;;;;;;5135401;27;20402;-80
2021/10/24 06:58:20;;;;;;;6.75;1.27;;;10.30;79.20;;;;;;5135210;27;20047;-80
2021/10/24 07:01:06;;;;;;;7.07;1.73;;;10.30;79.30;;;;;;5129837;27;20062;-80
2021/10/24 07:03:54;;;;;;;7.07;1.80;;;10.30;79.40;;;;;;5097401;27;20055;-81
2021/10/24 07:06:37;;;;;;;6.93;1.33;;;10.30;79.50;;;;;;5118560;27;20050;-80
2021/10/24 07:09:19;;;;;;;8.15;1.42;;;10.30;79.60;;;;;;5101388;27;20074;-80
2021/10/24 07:12:10;;;;;;;5.30;1.10;;;10.30;79.70;;;;;;5110954;27;20052;-81
2021/10/24 07:14:38;;;;;;;9.00;1.42;;;10.30;79.90;;;;;;5107277;28;20052;-81
2021/10/24 07:17:06;;;;;;;9.00;1.60;;;10.30;80.00;;;;;;5122858;27;20051;-80
2021/10/24 07:19:33;;;;;;;8.68;1.80;;;10.30;80.00;;;;;;5108056;28;20123;-80
2021/10/24 07:22:07;;;;;;;11.20;1.55;;;10.30;80.10;;;;;;5119106;27;20039;-80
2021/10/24 07:25:03;;;;;;;4.45;1.73;;;10.30;80.20;;;;;;5112158;28;20047;-80
2021/10/24 07:27:39;;;;;;;6.32;1.58;;;10.20;80.30;;;;;;5123769;27;20044;-81
2021/10/24 07:30:07;;;;;;;3.15;1.15;;;10.20;80.40;;;;;;5105689;28;20406;-80
2021/10/24 07:32:48;;;;;;;6.85;1.58;;;10.20;80.50;;;;;;5112899;28;20498;-80
2021/10/24 07:35:34;;;;;;;5.93;1.98;;;10.20;80.50;;;;;;5117010;27;20046;-80
2021/10/24 07:38:04;;;;;;;6.45;1.80;;;10.20;80.60;;;;;;5115720;27;20053;-80
2021/10/24 07:40:39;;;;;;;7.43;1.60;;;10.20;80.60;;;;;;5115201;27;20062;-80
2021/10/24 07:43:13;;;;;;;5.22;1.80;;;10.30;80.50;;;;;;5109755;27;20493;-80
2021/10/24 07:45:41;;;;;;;8.80;1.42;;;10.30;80.50;;;;;;5117371;27;20055;-80
2021/10/24 07:48:10;;;;;;;7.65;2.00;;;10.30;80.50;;;;;;5117581;27;20039;-80
2021/10/24 07:50:38;;;;;;;7.30;1.88;;;10.30;80.50;;;;;;5117523;27;20061;-81
2021/10/24 07:53:10;;;;;;;8.52;1.80;;;10.30;80.70;;;;;;5125925;27;20049;-80
2021/10/24 07:55:43;;;;;;;6.50;1.85;;;10.30;80.80;;;;;;5091092;27;20035;-80
2021/10/24 07:58:24;;;;;;;7.32;1.80;;;10.30;80.80;;;;;;5114043;27;20528;-79
2021/10/24 08:00:52;;;;;;;6.47;1.80;;;10.30;81.00;;;;;;5129267;27;20536;-79
2021/10/24 08:03:21;;;;;;;7.15;1.75;;;10.30;81.20;;;;;;5120639;27;20044;-80
2021/10/24 08:05:49;;;;;;;8.60;1.77;;;10.30;81.40;;;;;;5079996;28;20052;-80
2021/10/24 08:08:17;;;;;;;5.38;1.50;;;10.30;81.40;;;;;;5115838;27;20414;-80
2021/10/24 08:10:45;;;;;;;9.50;1.83;;;10.30;81.50;;;;;;5126175;27;20039;-80
2021/10/24 08:13:12;;;;;;;3.70;1.58;;;10.30;81.60;;;;;;5132602;27;20039;-81
2021/10/24 08:15:41;;;;;;;7.38;1.85;;;10.30;81.80;;;;;;5115822;27;20047;-81
2021/10/24 08:18:09;;;;;;;8.48;1.63;;;10.30;82.00;;;;;;5132247;27;20050;-81
2021/10/24 08:21:03;;;;;;;5.95;1.70;;;10.40;82.10;;;;;;5124216;27;20051;-80
2021/10/24 08:23:35;;;;;;;12.02;1.90;;;10.30;82.20;;;;;;5084055;28;20448;-81
2021/10/24 08:26:03;;;;;;;4.18;1.48;;;10.40;82.30;;;;;;5124821;27;20498;-81
2021/10/24 08:28:31;;;;;;;10.45;1.75;;;10.40;82.40;;;;;;5124066;27;20493;-81
2021/10/24 08:31:02;;;;;;;10.65;1.95;;;10.40;82.40;;;;;;5129417;27;20398;-80
2021/10/24 08:33:35;;;;;;;6.93;1.67;;;10.40;82.50;;;;;;5100143;28;20043;-81
2021/10/24 08:36:04;;;;;;;4.97;1.42;;;10.50;82.50;;;;;;5123214;27;20478;-81
2021/10/24 08:38:32;;;;;;;12.73;1.88;;;10.40;82.50;;;;;;5133362;27;20055;-81
2021/10/24 08:41:02;;;;;;;8.02;1.45;;;10.50;82.40;;;;;;5133027;27;20047;-81
2021/10/24 08:43:32;;;;;;;6.47;1.75;;;10.60;82.30;;;;;;5129155;27;20035;-81
2021/10/24 08:46:02;;;;;;;5.65;1.55;;;10.60;82.20;;;;;;5132738;27;20505;-80
2021/10/24 08:48:31;;;;;;;9.15;1.90;;;10.70;82.10;;;;;;5118223;27;20444;-80
2021/10/24 08:50:59;;;;;;;8.88;1.77;;;10.70;82.00;;;;;;5112270;28;20433;-80
2021/10/24 08:53:28;;;;;;;9.63;1.83;;;10.70;81.90;;;;;;5123947;27;20074;-80
2021/10/24 08:55:56;;;;;;;11.38;1.85;;;10.70;81.60;;;;;;5114100;27;20055;-81
2021/10/24 08:58:24;;;;;;;11.50;1.80;;;10.70;81.70;;;;;;5114022;27;20429;-81
2021/10/24 09:00:53;;;;;;;5.15;1.52;;;10.70;81.60;;;;;;5129023;27;20039;-81
2021/10/24 09:03:21;;;;;;;6.70;1.77;;;10.60;81.70;;;;;;5124603;27;20036;-80
2021/10/24 09:05:50;;;;;;;9.52;1.50;;;10.60;81.80;;;;;;5111658;28;20043;-80
2021/10/24 09:08:23;;;;;;;6.13;1.73;;;10.60;81.90;;;;;;5094167;28;20044;-79
2021/10/24 09:10:54;;;;;;;8.73;1.58;;;10.60;82.00;;;;;;5122008;27;20043;-80
2021/10/24 09:13:27;;;;;;;9.13;1.90;;;10.60;82.10;;;;;;5119836;27;20047;-80
2021/10/24 09:16:05;;;;;;;;;;;10.70;82.00;;;;;;5118844;27;20494;-80
2021/10/24 09:18:37;;;;;;;9.23;2.10;;;10.70;82.00;;;;;;5133026;27;19919;-80
2021/10/24 09:21:23;;;;;;;7.43;1.55;;;10.70;81.70;;;;;;5130011;27;20043;-80
2021/10/24 09:24:09;;;;;;;7.00;1.60;;;10.70;81.60;;;;;;5126446;27;20055;-80
2021/10/24 09:26:40;;;;;;;9.85;1.85;;;10.80;81.60;;;;;;5123405;27;20039;-80
2021/10/24 09:29:12;;;;;;;7.85;1.95;;;10.80;81.30;;;;;;5111032;28;20039;-80
2021/10/24 09:31:51;;;;;;;7.35;1.92;;;10.80;81.30;;;;;;5116833;28;20050;-80
2021/10/24 09:34:23;;;;;;;13.57;4.72;;;10.80;81.30;;;;;;5113084;28;20367;-80
2021/10/24 09:37:23;;;;;;;5.47;1.70;;;10.80;81.40;;;;;;5087505;28;20052;-80
2021/10/24 09:40:38;;;;;;;8.15;1.98;;;10.80;81.40;;;;;;5077087;28;20061;-80
2021/10/24 09:43:26;;;;;;;;;;;10.80;81.50;;;;;;5052424;28;20051;-80
2021/10/24 09:45:56;;;;;;;9.25;1.70;;;10.80;81.50;;;;;;5047423;28;19923;-80
2021/10/24 09:48:26;;;;;;;7.35;1.92;;;11.00;81.40;;;;;;5034127;28;20447;-82
2021/10/24 09:50:58;;;;;;;8.77;1.60;;;11.00;81.30;;;;;;5061468;28;20458;-82
2021/10/24 09:53:35;;;;;;;5.57;1.40;;;11.10;81.30;;;;;;5066265;28;20052;-80
2021/10/24 09:56:11;;;;;;;7.82;1.85;;;11.20;81.20;;;;;;5058870;28;20095;-79
2021/10/24 09:58:45;;;;;;;10.15;2.10;;;11.30;81.10;;;;;;5077635;28;20495;-80
2021/10/24 10:01:15;;;;;;;12.70;1.85;;;11.30;80.90;;;;;;5050268;28;20403;-80
2021/10/24 10:03:53;;;;;;;7.95;1.50;;;11.40;80.80;;;;;;5075922;28;20057;-80
2021/10/24 10:06:23;;;;;;;13.30;2.13;;;11.50;80.60;;;;;;5029992;28;20061;-80
2021/10/24 10:08:51;;;;;;;5.75;1.63;;;11.60;80.30;;;;;;5039910;28;20419;-79
2021/10/24 10:11:42;;;;;;;7.15;1.63;;;11.60;80.30;;;;;;5057197;28;20052;-79
2021/10/24 10:14:20;;;;;;;7.00;1.77;;;11.60;80.30;;;;;;5106828;28;20067;-79
2021/10/24 10:17:11;;;;;;;10.80;1.85;;;11.60;80.30;;;;;;5102883;27;20048;-80
2021/10/24 10:19:42;;;;;;;9.55;2.00;;;11.50;80.30;;;;;;5131219;27;20066;-79
2021/10/24 10:22:22;;;;;;;;;;;11.60;80.40;;;;;;5131164;27;20510;-80
2021/10/24 10:24:56;;;;;;;11.13;1.70;;;11.60;80.50;;;;;;5133375;27;19927;-79
2021/10/24 10:27:27;;;;;;;15.27;2.20;;;11.70;80.40;;;;;;5135039;27;20047;-79
2021/10/24 10:29:57;;;;;;;7.47;1.67;;;11.70;80.40;;;;;;5134115;27;20058;-79
2021/10/24 10:32:40;;;;;;;9.45;1.85;;;11.70;80.40;;;;;;5132553;27;20047;-79
2021/10/24 10:35:19;;;;;;;8.87;1.80;;;11.80;80.40;;;;;;5099596;28;20039;-78
2021/10/24 10:37:53;;;;;;;9.82;1.85;;;11.80;80.30;;;;;;5114265;28;20490;-79
2021/10/24 10:40:37;;;;;;;10.82;1.95;;;11.80;80.40;;;;;;5103834;27;20039;-80
2021/10/24 10:43:20;;;;;;;6.95;1.67;;;11.70;80.60;;;;;;5134782;27;20501;-80
2021/10/24 10:46:05;;;;;;;9.65;2.00;;;11.80;80.70;;;;;;5128606;27;20043;-80
2021/10/24 10:48:46;;;;;;;8.63;2.08;;;11.80;80.70;;;;;;5134323;27;20548;-79
2021/10/24 10:51:24;;;;;;;5.70;1.65;;;11.80;80.70;;;;;;5136827;27;20047;-80
2021/10/24 10:54:00;;;;;;;7.90;1.58;;;11.80;80.90;;;;;;5129330;27;20050;-80
2021/10/24 10:56:48;;;;;;;10.65;2.10;;;11.80;81.00;;;;;;5130769;27;20052;-79
2021/10/24 10:59:34;;;;;;;7.68;1.80;;;11.80;81.10;;;;;;5117150;27;20039;-80
2021/10/24 11:02:22;;;;;;;17.70;2.45;;;11.80;81.20;;;;;;5125627;27;20047;-80
2021/10/24 11:04:52;;;;;;;7.97;1.83;;;11.80;81.30;;;;;;5148076;27;20058;-80
2021/10/24 11:07:38;;;;;;;7.82;1.83;;;11.90;81.30;;;;;;5134833;27;20039;-80
2021/10/24 11:10:09;;;;;;;9.07;2.10;;;11.80;81.30;;;;;;5134763;27;20051;-80
2021/10/24 11:12:39;;;;;;;9.35;2.80;;;11.80;81.40;;;;;;5133733;27;20040;-79
2021/10/24 11:15:17;;;;;;;8.63;2.13;;;11.90;81.50;;;;;;5130988;27;20055;-80
2021/10/24 11:17:49;;;;;;;11.35;2.67;;;11.90;81.70;;;;;;5135501;27;20047;-80
2021/10/24 11:20:26;;;;;;;14.07;2.83;;;11.90;81.80;;;;;;5135630;27;20058;-80
2021/10/24 11:23:09;;;;;;;5.15;1.80;;;11.90;82.00;;;;;;5135253;27;20054;-80
2021/10/24 11:25:50;;;;;;;7.28;1.92;;;12.00;82.10;;;;;;5134443;27;20046;-81
2021/10/24 11:28:25;;;;;;;10.65;2.20;;;12.00;82.10;;;;;;5130557;27;20044;-80
2021/10/24 11:31:02;;;;;;;8.55;1.80;;;12.00;82.10;;;;;;5114620;28;20066;-79
2021/10/24 11:34:04;;;;;;;5.95;1.83;;;12.10;82.10;;;;;;5114531;28;20043;-80
2021/10/24 11:36:31;;;;;;;10.52;2.17;;;12.10;82.10;;;;;;5085451;27;20043;-80
2021/10/24 11:39:02;;;;;;;12.20;2.20;;;12.20;82.20;;;;;;5134054;27;20047;-80
2021/10/24 11:41:30;;;;;;;12.27;2.13;;;12.30;82.00;;;;;;5134973;27;20503;-80
2021/10/24 11:44:08;;;;;;;8.80;1.98;;;12.30;81.90;;;;;;5133191;27;20047;-80
2021/10/24 11:46:36;;;;;;;8.95;1.90;;;12.30;81.90;;;;;;5133503;27;20042;-80
2021/10/24 11:49:05;;;;;;;7.45;1.70;;;12.30;81.80;;;;;;5134768;27;20066;-80
2021/10/24 11:51:37;;;;;;;9.05;2.13;;;12.30;81.70;;;;;;5134755;27;20054;-81
2021/10/24 11:54:09;;;;;;;7.07;2.22;;;12.30;81.80;;;;;;5134334;27;20051;-80
2021/10/24 11:59:49;;;;;;;6.65;1.83;;;12.30;82.00;;;;;;5134399;27;20051;-80
2021/10/24 12:02:18;;;;;;;12.38;1.80;;;12.30;82.00;;;;;;5134442;27;20517;-81
2021/10/24 12:04:46;;;;;;;12.35;2.40;;;12.30;82.30;;;;;;5134177;27;20204;-81
2021/10/24 12:07:16;;;;;;;9.25;2.35;;;12.40;82.20;;;;;;5116013;27;20042;-81
2021/10/24 12:09:45;;;;;;;5.95;1.63;;;12.40;82.20;;;;;;5122163;27;20062;-81
2021/10/24 12:12:20;;;;;;;7.13;2.10;;;12.40;82.20;;;;;;5132008;27;20043;-81
2021/10/24 12:14:58;;;;;;;8.32;1.92;;;12.40;82.10;;;;;;5132521;27;20366;-81
2021/10/24 12:17:30;;;;;;;11.82;2.05;;;12.40;82.20;;;;;;5120006;27;20401;-81
2021/10/24 12:20:24;;;;;;;12.75;2.30;;;12.40;82.40;;;;;;5130125;27;20058;-81
2021/10/24 12:22:56;;;;;;;10.60;2.00;;;12.40;82.30;;;;;;5133356;27;20039;-81
2021/10/24 12:25:48;;;;;;;5.95;1.90;;;12.40;82.30;;;;;;5115825;27;20043;-80
2021/10/24 12:28:26;;;;;;;7.53;1.75;;;12.50;82.40;;;;;;5107404;28;20070;-81
2021/10/24 12:30:57;;;;;;;7.70;2.05;;;12.50;82.40;;;;;;5112132;28;20512;-81
2021/10/24 12:33:39;;;;;;;9.55;2.17;;;12.50;82.40;;;;;;5112016;28;20386;-80
2021/10/24 12:36:09;;;;;;;7.63;1.90;;;12.50;82.50;;;;;;5112897;28;20044;-81
2021/10/24 12:38:57;;;;;;;3.17;1.70;;;12.60;82.40;;;;;;5113516;27;20043;-81
2021/10/24 12:41:39;;;;;;;5.00;2.00;;;12.70;82.50;;;;;;5111558;28;20060;-82
2021/10/24 12:44:22;;;;;;;5.03;1.42;;;12.80;82.40;;;;;;5112606;28;20521;-81
2021/10/24 12:46:53;;;;;;;11.55;2.30;;;12.80;82.20;;;;;;5113247;28;20043;-81
2021/10/24 12:49:32;;;;;;;11.07;2.42;;;12.80;82.20;;;;;;5112972;28;20398;-81
2021/10/24 12:52:29;;;;;;;8.05;2.30;;;12.80;82.20;;;;;;5112907;28;20054;-81
2021/10/24 12:55:00;;;;;;;11.95;2.00;;;12.90;82.20;;;;;;5094735;28;20356;-81
2021/10/24 12:57:27;;;;;;;13.32;2.47;;;12.90;82.20;;;;;;5112660;28;20036;-81
2021/10/24 12:59:55;;;;;;;14.57;2.08;;;12.90;82.30;;;;;;5110940;27;20054;-81
2021/10/24 13:02:23;;;;;;;5.57;1.85;;;12.90;82.30;;;;;;5112571;28;20517;-80
2021/10/24 13:04:51;;;;;;;6.60;1.98;;;12.80;82.50;;;;;;5113026;27;20056;-81
2021/10/24 13:07:18;;;;;;;7.88;2.20;;;12.80;82.60;;;;;;5098304;27;20051;-81
2021/10/24 13:09:46;;;;;;;8.57;1.67;;;12.80;82.80;;;;;;5131254;27;20035;-81
2021/10/24 13:12:14;;;;;;;8.55;1.65;;;12.80;83.00;;;;;;5132950;27;20062;-81
2021/10/24 13:14:46;;;;;;;6.85;2.03;;;12.80;83.20;;;;;;5132062;27;20043;-83
2021/10/24 13:17:14;;;;;;;10.70;2.53;;;12.70;83.30;;;;;;5119384;27;20395;-79